createdAt,value
2023-02-05T00:00:11.371Z,3.45
2023-02-05T00:01:11.368Z,3.48
2023-02-05T00:02:13.008Z,3.43
2023-02-05T00:03:13.307Z,3.48
2023-02-05T00:04:13.629Z,3.37
2023-02-05T00:05:13.857Z,3.5
2023-02-05T00:06:13.813Z,3.4
2023-02-05T00:07:15.032Z,3.3
2023-02-05T00:08:14.943Z,3.26
2023-02-05T00:09:15.432Z,3.29
2023-02-05T00:10:15.361Z,3.31
2023-02-05T00:11:16.784Z,3.31
2023-02-05T00:12:16.710Z,3.26
2023-02-05T00:13:17.275Z,3.33
2023-02-05T00:14:17.783Z,3.27
2023-02-05T00:15:17.712Z,3.4
2023-02-05T00:16:18.912Z,3.37
2023-02-05T00:17:19.661Z,3.3
2023-02-05T00:18:20.593Z,3.33
2023-02-05T00:19:20.515Z,3.34
2023-02-05T00:20:21.451Z,3.22
2023-02-05T00:21:21.467Z,3.41
2023-02-05T00:22:22.389Z,3.29
2023-02-05T00:23:23.352Z,3.3
2023-02-05T00:24:24.281Z,3.33
2023-02-05T00:25:24.201Z,3.12
2023-02-05T00:26:24.932Z,3.19
2023-02-05T00:27:24.852Z,3.11
2023-02-05T00:28:25.380Z,3.12
2023-02-05T00:29:25.574Z,3.06
2023-02-05T00:30:25.779Z,3.09
2023-02-05T00:31:26.492Z,3.01
2023-02-05T00:32:25.786Z,3.03
2023-02-05T00:33:26.990Z,2.91
2023-02-05T00:34:27.637Z,3.03
2023-02-05T00:35:28.571Z,2.91
2023-02-05T00:36:29.148Z,2.91
2023-02-05T00:37:29.371Z,2.91
2023-02-05T00:38:29.566Z,2.97
2023-02-05T00:39:29.501Z,2.88
2023-02-05T00:40:30.703Z,3
2023-02-05T00:41:31.875Z,2.88
2023-02-05T00:42:32.423Z,2.9
2023-02-05T00:43:32.369Z,2.85
2023-02-05T00:44:33.567Z,2.82
2023-02-05T00:45:35.602Z,2.88
2023-02-05T00:46:35.121Z,2.87
2023-02-05T00:47:34.580Z,2.75
2023-02-05T00:48:35.800Z,2.7
2023-02-05T00:49:36.008Z,2.7
2023-02-05T00:50:35.942Z,2.72
2023-02-05T00:51:36.745Z,2.79
2023-02-05T00:52:37.458Z,2.75
2023-02-05T00:53:38.683Z,2.77
2023-02-05T00:54:38.671Z,2.7
2023-02-05T00:55:39.566Z,2.72
2023-02-05T00:56:40.004Z,2.72
2023-02-05T00:57:40.201Z,2.79
2023-02-05T00:58:40.432Z,2.75
2023-02-05T00:59:40.645Z,2.7
2023-02-05T01:00:41.282Z,2.73
2023-02-05T01:01:41.672Z,2.76
2023-02-05T01:02:41.847Z,2.72
2023-02-05T01:03:42.886Z,2.73
2023-02-05T01:04:43.525Z,2.73
2023-02-05T01:05:43.761Z,2.7
2023-02-05T01:06:44.969Z,2.79
2023-02-05T01:07:45.202Z,2.7
2023-02-05T01:08:46.120Z,2.68
2023-02-05T01:09:46.624Z,2.72
2023-02-05T01:10:46.556Z,2.55
2023-02-05T01:11:47.991Z,2.59
2023-02-05T01:12:48.183Z,2.61
2023-02-05T01:13:48.452Z,2.58
2023-02-05T01:14:48.679Z,2.51
2023-02-05T01:15:49.501Z,2.57
2023-02-05T01:16:50.214Z,2.61
2023-02-05T01:17:51.405Z,2.57
2023-02-05T01:18:52.322Z,2.55
2023-02-05T01:19:52.515Z,2.5
2023-02-05T01:20:52.720Z,2.4
2023-02-05T01:21:53.435Z,2.5
2023-02-05T01:22:53.925Z,2.43
2023-02-05T01:23:54.114Z,2.5
2023-02-05T01:24:54.352Z,2.5
2023-02-05T01:25:55.318Z,2.46
2023-02-05T01:26:55.618Z,2.41
2023-02-05T01:27:56.685Z,2.54
2023-02-05T01:28:57.058Z,2.52
2023-02-05T01:29:57.995Z,2.41
2023-02-05T01:30:58.378Z,2.47
2023-02-05T01:31:59.274Z,2.47
2023-02-05T01:32:59.794Z,2.44
2023-02-05T01:33:59.443Z,2.43
2023-02-05T01:35:00.380Z,2.4
2023-02-05T01:36:01.308Z,2.36
2023-02-05T01:37:01.936Z,2.36
2023-02-05T01:38:02.416Z,2.39
2023-02-05T01:39:02.640Z,2.4
2023-02-05T01:40:03.278Z,2.39
2023-02-05T01:41:03.844Z,2.34
2023-02-05T01:42:04.278Z,2.34
2023-02-05T01:43:04.496Z,2.36
2023-02-05T01:44:04.506Z,2.36
2023-02-05T01:45:04.861Z,2.36
2023-02-05T01:46:05.916Z,2.34
2023-02-05T01:47:05.905Z,2.32
2023-02-05T01:48:05.830Z,2.26
2023-02-05T01:49:07.019Z,2.21
2023-02-05T01:50:06.931Z,2.22
2023-02-05T01:51:07.442Z,2.21
2023-02-05T01:52:08.192Z,2.23
2023-02-05T01:53:08.391Z,2.15
2023-02-05T01:54:09.057Z,2.14
2023-02-05T01:55:09.970Z,2.1
2023-02-05T01:56:11.180Z,2.12
2023-02-05T01:57:11.743Z,2.14
2023-02-05T01:58:11.944Z,2.19
2023-02-05T01:59:14.978Z,2.15
2023-02-05T02:00:12.892Z,2.12
2023-02-05T02:01:13.582Z,2.15
2023-02-05T02:02:13.893Z,2.1
2023-02-05T02:03:14.419Z,2.12
2023-02-05T02:04:14.339Z,2.18
2023-02-05T02:05:15.168Z,2.16
2023-02-05T02:06:14.939Z,2.19
2023-02-05T02:07:15.678Z,2.18
2023-02-05T02:08:16.290Z,2.18
2023-02-05T02:09:16.948Z,2.16
2023-02-05T02:10:17.448Z,2.14
2023-02-05T02:11:17.670Z,2.04
2023-02-05T02:12:18.788Z,2.03
2023-02-05T02:13:18.517Z,2.07
2023-02-05T02:14:19.740Z,2.05
2023-02-05T02:15:19.946Z,2.03
2023-02-05T02:16:21.087Z,2.01
2023-02-05T02:17:21.063Z,1.98
2023-02-05T02:18:21.706Z,2.07
2023-02-05T02:19:22.973Z,2.03
2023-02-05T02:20:24.182Z,2.14
2023-02-05T02:21:24.612Z,2.04
2023-02-05T02:22:25.611Z,2.07
2023-02-05T02:23:26.529Z,2.07
2023-02-05T02:24:27.743Z,2.08
2023-02-05T02:25:27.965Z,2.04
2023-02-05T02:26:28.648Z,1.93
2023-02-05T02:27:29.911Z,2.05
2023-02-05T02:28:29.813Z,2
2023-02-05T02:29:29.743Z,2.04
2023-02-05T02:30:30.638Z,1.93
2023-02-05T02:31:30.871Z,1.98
2023-02-05T02:32:31.064Z,1.95
2023-02-05T02:33:31.273Z,1.95
2023-02-05T02:34:31.615Z,1.98
2023-02-05T02:35:33.310Z,1.95
2023-02-05T02:36:33.731Z,1.95
2023-02-05T02:37:34.379Z,1.97
2023-02-05T02:38:34.754Z,1.98
2023-02-05T02:39:35.676Z,2
2023-02-05T02:40:35.882Z,1.86
2023-02-05T02:41:36.093Z,1.86
2023-02-05T02:42:37.201Z,1.81
2023-02-05T02:43:36.817Z,1.71
2023-02-05T02:44:38.357Z,1.79
2023-02-05T02:45:39.286Z,1.76
2023-02-05T02:46:39.639Z,1.76
2023-02-05T02:47:40.281Z,1.82
2023-02-05T02:48:40.505Z,1.76
2023-02-05T02:49:41.144Z,1.81
2023-02-05T02:50:42.060Z,1.82
2023-02-05T02:51:42.556Z,1.82
2023-02-05T02:52:42.867Z,1.71
2023-02-05T02:53:44.087Z,1.81
2023-02-05T02:54:44.740Z,1.81
2023-02-05T02:55:44.969Z,1.85
2023-02-05T02:56:44.892Z,1.75
2023-02-05T02:57:46.187Z,1.71
2023-02-05T02:58:46.669Z,1.82
2023-02-05T02:59:46.922Z,1.82
2023-02-05T03:00:47.561Z,1.81
2023-02-05T03:01:54.342Z,1.68
2023-02-05T03:02:48.060Z,1.78
2023-02-05T03:03:49.087Z,1.74
2023-02-05T03:04:49.228Z,1.78
2023-02-05T03:05:50.407Z,1.82
2023-02-05T03:06:50.916Z,1.79
2023-02-05T03:07:52.118Z,1.75
2023-02-05T03:08:52.364Z,1.75
2023-02-05T03:09:53.299Z,1.67
2023-02-05T03:10:53.691Z,1.75
2023-02-05T03:11:54.615Z,1.82
2023-02-05T03:12:56.053Z,1.78
2023-02-05T03:13:55.718Z,1.79
2023-02-05T03:14:56.089Z,1.79
2023-02-05T03:15:56.437Z,1.79
2023-02-05T03:16:57.411Z,1.89
2023-02-05T03:17:58.610Z,1.7
2023-02-05T03:18:58.526Z,1.82
2023-02-05T03:19:59.177Z,1.74
2023-02-05T03:21:00.109Z,1.81
2023-02-05T03:22:00.321Z,1.82
2023-02-05T03:23:01.327Z,1.76
2023-02-05T03:24:01.267Z,1.74
2023-02-05T03:25:01.896Z,1.7
2023-02-05T03:26:02.275Z,1.81
2023-02-05T03:27:03.188Z,1.76
2023-02-05T03:28:03.674Z,1.78
2023-02-05T03:29:04.320Z,1.75
2023-02-05T03:30:04.273Z,1.82
2023-02-05T03:31:05.718Z,1.84
2023-02-05T03:32:05.886Z,1.79
2023-02-05T03:33:05.644Z,1.78
2023-02-05T03:34:06.888Z,1.74
2023-02-05T03:35:07.123Z,1.74
2023-02-05T03:36:07.309Z,1.79
2023-02-05T03:37:07.936Z,1.79
2023-02-05T03:38:09.136Z,1.75
2023-02-05T03:39:09.367Z,1.76
2023-02-05T03:40:10.570Z,1.75
2023-02-05T03:41:10.501Z,1.84
2023-02-05T03:42:10.751Z,1.81
2023-02-05T03:43:12.133Z,1.74
2023-02-05T03:44:12.050Z,1.84
2023-02-05T03:45:12.587Z,1.82
2023-02-05T03:46:12.881Z,1.79
2023-02-05T03:47:13.801Z,1.88
2023-02-05T03:48:14.709Z,1.85
2023-02-05T03:49:15.195Z,1.82
2023-02-05T03:50:15.123Z,1.97
2023-02-05T03:51:15.616Z,1.92
2023-02-05T03:52:15.957Z,1.93
2023-02-05T03:53:17.556Z,1.85
2023-02-05T03:54:18.512Z,1.93
2023-02-05T03:55:19.439Z,1.86
2023-02-05T03:56:19.710Z,1.84
2023-02-05T03:57:19.931Z,1.81
2023-02-05T03:58:20.214Z,1.81
2023-02-05T03:59:19.903Z,1.81
2023-02-05T04:00:20.891Z,1.7
2023-02-05T04:01:22.011Z,1.81
2023-02-05T04:02:22.477Z,1.85
2023-02-05T04:03:22.921Z,1.82
2023-02-05T04:04:23.180Z,1.89
2023-02-05T04:05:23.551Z,1.82
2023-02-05T04:06:24.223Z,1.78
2023-02-05T04:07:24.448Z,1.85
2023-02-05T04:08:25.363Z,1.81
2023-02-05T04:09:26.264Z,1.78
2023-02-05T04:10:27.470Z,1.75
2023-02-05T04:11:27.683Z,1.78
2023-02-05T04:12:27.622Z,1.79
2023-02-05T04:13:28.997Z,1.84
2023-02-05T04:14:29.470Z,1.89
2023-02-05T04:15:29.736Z,1.79
2023-02-05T04:16:30.532Z,1.82
2023-02-05T04:17:31.196Z,1.86
2023-02-05T04:18:31.408Z,1.95
2023-02-05T04:19:32.060Z,1.92
2023-02-05T04:20:32.731Z,1.97
2023-02-05T04:21:33.926Z,1.95
2023-02-05T04:22:34.089Z,1.98
2023-02-05T04:23:35.104Z,2.01
2023-02-05T04:24:35.364Z,1.97
2023-02-05T04:25:36.601Z,2.01
2023-02-05T04:26:36.660Z,1.98
2023-02-05T04:27:36.577Z,1.93
2023-02-05T04:28:37.598Z,1.92
2023-02-05T04:29:37.810Z,1.97
2023-02-05T04:30:38.255Z,1.95
2023-02-05T04:31:38.820Z,1.95
2023-02-05T04:32:38.857Z,1.95
2023-02-05T04:33:39.473Z,1.95
2023-02-05T04:34:39.957Z,1.86
2023-02-05T04:35:41.332Z,1.84
2023-02-05T04:36:41.266Z,1.86
2023-02-05T04:37:42.179Z,1.82
2023-02-05T04:38:42.837Z,1.85
2023-02-05T04:39:44.040Z,1.85
2023-02-05T04:40:44.538Z,1.78
2023-02-05T04:41:45.451Z,1.82
2023-02-05T04:42:45.396Z,1.78
2023-02-05T04:43:46.769Z,1.81
2023-02-05T04:44:46.998Z,1.79
2023-02-05T04:45:47.408Z,1.81
2023-02-05T04:46:47.600Z,1.79
2023-02-05T04:47:48.061Z,1.84
2023-02-05T04:48:48.681Z,1.7
2023-02-05T04:49:49.334Z,1.79
2023-02-05T04:50:49.551Z,1.75
2023-02-05T04:51:50.487Z,1.89
2023-02-05T04:52:51.435Z,1.78
2023-02-05T04:53:51.826Z,1.82
2023-02-05T04:54:51.742Z,1.82
2023-02-05T04:55:52.262Z,1.79
2023-02-05T04:56:52.208Z,1.75
2023-02-05T04:57:53.395Z,1.78
2023-02-05T04:58:53.692Z,1.75
2023-02-05T04:59:54.173Z,1.84
2023-02-05T05:00:54.672Z,1.78
2023-02-05T05:01:54.389Z,1.76
2023-02-05T05:02:55.908Z,1.68
2023-02-05T05:03:55.912Z,1.76
2023-02-05T05:04:56.813Z,1.7
2023-02-05T05:05:56.736Z,1.76
2023-02-05T05:06:57.373Z,1.67
2023-02-05T05:07:58.630Z,1.7
2023-02-05T05:08:58.856Z,1.74
2023-02-05T05:09:59.488Z,1.67
2023-02-05T05:10:59.844Z,1.71
2023-02-05T05:12:01.101Z,1.66
2023-02-05T05:13:01.321Z,1.74
2023-02-05T05:14:02.061Z,1.74
2023-02-05T05:15:01.970Z,1.66
2023-02-05T05:16:02.361Z,1.63
2023-02-05T05:17:02.792Z,1.7
2023-02-05T05:18:03.429Z,1.7
2023-02-05T05:19:04.688Z,1.74
2023-02-05T05:20:04.904Z,1.67
2023-02-05T05:21:05.535Z,1.63
2023-02-05T05:22:06.914Z,1.71
2023-02-05T05:23:08.118Z,1.57
2023-02-05T05:24:09.123Z,1.61
2023-02-05T05:25:09.607Z,1.64
2023-02-05T05:26:10.118Z,1.61
2023-02-05T05:27:10.315Z,1.6
2023-02-05T05:28:10.732Z,1.6
2023-02-05T05:29:11.129Z,1.53
2023-02-05T05:30:11.326Z,1.57
2023-02-05T05:31:12.539Z,1.53
2023-02-05T05:32:12.191Z,1.52
2023-02-05T05:33:13.250Z,1.39
2023-02-05T05:34:13.284Z,1.45
2023-02-05T05:35:14.202Z,1.43
2023-02-05T05:36:14.839Z,1.38
2023-02-05T05:37:15.466Z,1.43
2023-02-05T05:38:16.671Z,1.52
2023-02-05T05:39:17.283Z,1.46
2023-02-05T05:40:17.896Z,1.4
2023-02-05T05:41:19.130Z,1.39
2023-02-05T05:42:19.049Z,1.3
2023-02-05T05:43:19.979Z,1.39
2023-02-05T05:44:20.755Z,1.38
2023-02-05T05:45:20.946Z,1.4
2023-02-05T05:46:21.466Z,1.39
2023-02-05T05:47:21.634Z,1.38
2023-02-05T05:48:22.842Z,1.36
2023-02-05T05:49:23.189Z,1.32
2023-02-05T05:50:23.843Z,1.31
2023-02-05T05:51:25.032Z,1.36
2023-02-05T05:52:25.512Z,1.31
2023-02-05T05:53:26.233Z,1.3
2023-02-05T05:54:27.269Z,1.4
2023-02-05T05:55:27.463Z,1.4
2023-02-05T05:56:27.695Z,1.38
2023-02-05T05:57:28.309Z,1.53
2023-02-05T05:58:29.931Z,1.57
2023-02-05T05:59:30.268Z,1.52
2023-02-05T06:00:30.193Z,1.53
2023-02-05T06:01:30.160Z,1.6
2023-02-05T06:02:31.499Z,1.52
2023-02-05T06:03:32.240Z,1.56
2023-02-05T06:04:32.765Z,1.61
2023-02-05T06:05:33.440Z,1.68
2023-02-05T06:06:33.834Z,1.68
2023-02-05T06:07:35.050Z,1.67
2023-02-05T06:08:36.214Z,1.68
2023-02-05T06:09:36.142Z,1.71
2023-02-05T06:10:36.057Z,1.68
2023-02-05T06:11:37.266Z,1.66
2023-02-05T06:12:37.180Z,1.78
2023-02-05T06:13:38.181Z,1.71
2023-02-05T06:14:38.680Z,1.81
2023-02-05T06:15:40.000Z,1.79
2023-02-05T06:16:39.027Z,1.75
2023-02-05T06:17:39.692Z,1.84
2023-02-05T06:18:39.626Z,1.74
2023-02-05T06:19:40.844Z,1.71
2023-02-05T06:20:40.772Z,1.78
2023-02-05T06:21:41.264Z,1.82
2023-02-05T06:22:40.934Z,1.76
2023-02-05T06:23:42.140Z,1.74
2023-02-05T06:24:42.712Z,1.79
2023-02-05T06:25:42.618Z,1.81
2023-02-05T06:26:43.538Z,1.68
2023-02-05T06:27:44.149Z,1.79
2023-02-05T06:28:44.467Z,1.79
2023-02-05T06:29:45.178Z,1.82
2023-02-05T06:30:45.358Z,1.74
2023-02-05T06:31:46.264Z,1.67
2023-02-05T06:32:45.690Z,1.63
2023-02-05T06:33:47.180Z,1.66
2023-02-05T06:34:47.525Z,1.76
2023-02-05T06:35:48.002Z,1.63
2023-02-05T06:36:48.236Z,1.6
2023-02-05T06:37:53.565Z,1.67
2023-02-05T06:38:48.782Z,1.6
2023-02-05T06:39:49.069Z,1.66
2023-02-05T06:40:50.276Z,1.74
2023-02-05T06:41:50.622Z,1.67
2023-02-05T06:42:51.280Z,1.7
2023-02-05T06:43:52.569Z,1.7
2023-02-05T06:44:53.135Z,1.78
2023-02-05T06:45:53.783Z,1.78
2023-02-05T06:46:55.076Z,1.79
2023-02-05T06:47:55.000Z,1.71
2023-02-05T06:48:55.492Z,1.79
2023-02-05T06:49:55.697Z,1.75
2023-02-05T06:50:56.369Z,1.74
2023-02-05T06:51:57.033Z,1.74
2023-02-05T06:52:58.261Z,1.75
2023-02-05T06:53:58.815Z,1.76
2023-02-05T06:54:59.131Z,1.79
2023-02-05T06:55:59.338Z,1.84
2023-02-05T06:56:59.253Z,1.84
2023-02-05T06:57:59.900Z,1.78
2023-02-05T06:59:01.403Z,1.75
2023-02-05T07:00:02.512Z,1.76
2023-02-05T07:01:03.008Z,1.76
2023-02-05T07:02:03.479Z,1.71
2023-02-05T07:03:03.569Z,1.75
2023-02-05T07:04:04.209Z,1.78
2023-02-05T07:05:05.490Z,1.79
2023-02-05T07:06:05.707Z,1.78
2023-02-05T07:07:05.960Z,1.78
2023-02-05T07:08:07.050Z,1.79
2023-02-05T07:09:07.590Z,1.71
2023-02-05T07:10:08.916Z,1.75
2023-02-05T07:11:08.874Z,1.79
2023-02-05T07:12:09.516Z,1.79
2023-02-05T07:13:12.035Z,1.78
2023-02-05T07:14:11.533Z,1.85
2023-02-05T07:15:11.925Z,1.79
2023-02-05T07:16:12.236Z,1.79
2023-02-05T07:17:12.387Z,1.81
2023-02-05T07:18:13.285Z,1.85
2023-02-05T07:19:13.595Z,1.84
2023-02-05T07:20:13.849Z,1.86
2023-02-05T07:21:14.776Z,1.84
2023-02-05T07:22:14.743Z,1.86
2023-02-05T07:23:15.973Z,1.79
2023-02-05T07:24:16.968Z,1.88
2023-02-05T07:25:17.713Z,1.85
2023-02-05T07:26:18.298Z,1.88
2023-02-05T07:27:18.651Z,1.88
2023-02-05T07:28:19.699Z,1.88
2023-02-05T07:29:20.666Z,1.93
2023-02-05T07:30:26.651Z,1.93
2023-02-05T07:31:22.084Z,1.85
2023-02-05T07:32:22.417Z,1.85
2023-02-05T07:33:22.343Z,1.93
2023-02-05T07:34:23.545Z,1.84
2023-02-05T07:35:24.627Z,1.88
2023-02-05T07:36:25.415Z,1.78
2023-02-05T07:37:27.600Z,1.81
2023-02-05T07:38:26.222Z,1.89
2023-02-05T07:39:27.414Z,1.92
2023-02-05T07:40:27.331Z,1.85
2023-02-05T07:41:28.322Z,1.89
2023-02-05T07:42:31.773Z,1.81
2023-02-05T07:43:29.670Z,1.86
2023-02-05T07:44:30.593Z,1.84
2023-02-05T07:45:31.212Z,1.89
2023-02-05T07:46:31.952Z,1.89
2023-02-05T07:47:32.302Z,1.92
2023-02-05T07:48:32.285Z,1.95
2023-02-05T07:49:32.482Z,1.93
2023-02-05T07:50:33.149Z,1.97
2023-02-05T07:51:33.373Z,2.01
2023-02-05T07:52:34.277Z,2.05
2023-02-05T07:53:34.766Z,2.16
2023-02-05T07:54:34.964Z,2.16
2023-02-05T07:55:35.535Z,2.23
2023-02-05T07:56:36.205Z,2.26
2023-02-05T07:57:36.235Z,2.28
2023-02-05T07:58:36.723Z,2.36
2023-02-05T07:59:37.221Z,2.36
2023-02-05T08:00:37.182Z,2.39
2023-02-05T08:01:37.487Z,2.58
2023-02-05T08:02:37.463Z,2.69
2023-02-05T08:03:38.118Z,2.85
2023-02-05T08:04:39.395Z,2.91
2023-02-05T08:05:39.908Z,2.98
2023-02-05T08:06:39.551Z,2.9
2023-02-05T08:07:39.469Z,2.83
2023-02-05T08:08:40.673Z,2.83
2023-02-05T08:09:40.873Z,2.76
2023-02-05T08:10:41.798Z,2.75
2023-02-05T08:11:42.286Z,2.7
2023-02-05T08:12:42.507Z,2.76
2023-02-05T08:13:42.736Z,2.77
2023-02-05T08:14:43.115Z,2.7
2023-02-05T08:15:44.840Z,2.7
2023-02-05T08:16:45.410Z,2.75
2023-02-05T08:17:45.963Z,3.06
2023-02-05T08:18:45.870Z,3.15
2023-02-05T08:19:47.091Z,3.22
2023-02-05T08:20:47.592Z,3.16
2023-02-05T08:21:47.833Z,3.56
2023-02-05T08:22:49.055Z,3.74
2023-02-05T08:23:48.963Z,4.07
2023-02-05T08:24:50.178Z,4.46
2023-02-05T08:25:50.670Z,4.52
2023-02-05T08:26:51.607Z,4.67
2023-02-05T08:27:52.094Z,4.68
2023-02-05T08:28:52.373Z,4.87
2023-02-05T08:29:53.016Z,5.18
2023-02-05T08:30:54.491Z,5.47
2023-02-05T08:31:55.094Z,5.61
2023-02-05T08:32:55.395Z,5.67
2023-02-05T08:33:55.608Z,5.73
2023-02-05T08:34:55.831Z,5.56
2023-02-05T08:35:56.935Z,5.52
2023-02-05T08:36:57.884Z,5.44
2023-02-05T08:37:58.103Z,5.38
2023-02-05T08:38:59.315Z,5.28
2023-02-05T08:39:59.262Z,5.41
2023-02-05T08:40:59.761Z,5.59
2023-02-05T08:42:02.622Z,5.61
2023-02-05T08:43:00.574Z,5.73
2023-02-05T08:44:01.093Z,5.83
2023-02-05T08:45:01.135Z,5.92
2023-02-05T08:46:02.435Z,6.02
2023-02-05T08:47:02.856Z,5.97
2023-02-05T08:48:03.140Z,6.36
2023-02-05T08:49:04.103Z,6.47
2023-02-05T08:50:04.042Z,6.78
2023-02-05T08:51:04.696Z,6.8
2023-02-05T08:52:05.341Z,6.97
2023-02-05T08:53:06.548Z,7.04
2023-02-05T08:54:06.788Z,7.07
2023-02-05T08:55:07.002Z,7.07
2023-02-05T08:56:08.064Z,7.01
2023-02-05T08:57:08.914Z,6.86
2023-02-05T08:58:09.876Z,6.95
2023-02-05T08:59:09.946Z,7.18
2023-02-05T09:00:10.897Z,7.39
2023-02-05T09:01:12.219Z,7.51
2023-02-05T09:02:12.653Z,7.5
2023-02-05T09:03:13.098Z,7.33
2023-02-05T09:04:13.470Z,7.14
2023-02-05T09:05:17.528Z,6.89
2023-02-05T09:06:14.528Z,6.71
2023-02-05T09:07:14.661Z,6.6
2023-02-05T09:08:15.165Z,6.49
2023-02-05T09:09:15.362Z,6.36
2023-02-05T09:10:16.113Z,6.2
2023-02-05T09:11:17.013Z,6.22
2023-02-05T09:12:17.964Z,6.13
2023-02-05T09:13:19.190Z,6.13
2023-02-05T09:14:19.390Z,6.09
2023-02-05T09:15:20.311Z,6.06
2023-02-05T09:16:20.713Z,6.19
2023-02-05T09:17:21.466Z,6.06
2023-02-05T09:18:21.675Z,6.17
2023-02-05T09:19:21.947Z,6.09
2023-02-05T09:20:22.450Z,6.09
2023-02-05T09:21:23.385Z,6.15
2023-02-05T09:22:23.320Z,6.28
2023-02-05T09:23:23.971Z,6.29
2023-02-05T09:24:24.910Z,6.34
2023-02-05T09:25:25.118Z,6.47
2023-02-05T09:26:25.689Z,6.52
2023-02-05T09:27:25.631Z,6.7
2023-02-05T09:28:26.571Z,6.85
2023-02-05T09:29:27.509Z,7.01
2023-02-05T09:30:28.188Z,7.22
2023-02-05T09:31:29.173Z,7.41
2023-02-05T09:32:29.048Z,7.36
2023-02-05T09:33:29.697Z,7.39
2023-02-05T09:34:29.659Z,7.59
2023-02-05T09:35:30.902Z,7.72
2023-02-05T09:36:31.948Z,7.78
2023-02-05T09:37:32.300Z,7.69
2023-02-05T09:38:32.801Z,7.9
2023-02-05T09:40:22.049Z,8.42
2023-02-05T09:40:40.581Z,8.45
2023-02-05T09:41:40.506Z,8.77
2023-02-05T09:42:41.789Z,8.96
2023-02-05T09:43:42.526Z,9
2023-02-05T09:44:42.472Z,9.29
2023-02-05T09:45:45.028Z,9.34
2023-02-05T09:46:44.089Z,9.45
2023-02-05T09:47:44.341Z,9.63
2023-02-05T09:48:44.548Z,9.9
2023-02-05T09:49:44.546Z,10.12
2023-02-05T09:50:45.208Z,10.25
2023-02-05T09:51:46.271Z,10.24
2023-02-05T09:52:47.224Z,10.25
2023-02-05T09:53:47.436Z,10.15
2023-02-05T09:54:47.673Z,10.34
2023-02-05T09:55:47.638Z,10.59
2023-02-05T09:56:48.974Z,10.62
2023-02-05T09:57:49.196Z,10.79
2023-02-05T09:58:49.720Z,10.68
2023-02-05T09:59:49.672Z,10.62
2023-02-05T10:00:50.183Z,10.58
2023-02-05T10:01:50.687Z,10.67
2023-02-05T10:02:50.944Z,10.67
2023-02-05T10:03:51.870Z,10.77
2023-02-05T10:04:52.169Z,10.87
2023-02-05T10:05:52.598Z,10.97
2023-02-05T10:06:52.896Z,11.31
2023-02-05T10:07:53.126Z,11.51
2023-02-05T10:08:53.622Z,11.68
2023-02-05T10:09:53.537Z,11.81
2023-02-05T10:10:53.916Z,11.81
2023-02-05T10:11:55.137Z,11.63
2023-02-05T10:12:55.076Z,11.51
2023-02-05T10:13:56.296Z,11.23
2023-02-05T10:14:56.512Z,11.1
2023-02-05T10:15:57.099Z,10.86
2023-02-05T10:16:58.290Z,10.64
2023-02-05T10:17:59.541Z,10.24
2023-02-05T10:18:59.929Z,10.27
2023-02-05T10:19:59.960Z,10.21
2023-02-05T10:21:01.147Z,10.41
2023-02-05T10:22:02.089Z,10.62
2023-02-05T10:23:02.590Z,10.67
2023-02-05T10:24:03.087Z,10.79
2023-02-05T10:25:03.322Z,10.89
2023-02-05T10:26:03.559Z,10.82
2023-02-05T10:27:03.428Z,10.87
2023-02-05T10:28:04.891Z,11.02
2023-02-05T10:29:04.917Z,11.13
2023-02-05T10:30:05.205Z,11.02
2023-02-05T10:31:06.510Z,10.98
2023-02-05T10:32:07.327Z,10.75
2023-02-05T10:33:07.294Z,10.55
2023-02-05T10:34:07.943Z,10.62
2023-02-05T10:35:09.216Z,10.61
2023-02-05T10:36:09.440Z,10.48
2023-02-05T10:37:10.237Z,10.42
2023-02-05T10:38:12.063Z,10.12
2023-02-05T10:39:12.263Z,9.97
2023-02-05T10:40:12.472Z,9.82
2023-02-05T10:41:12.772Z,9.64
2023-02-05T10:42:13.717Z,9.54
2023-02-05T10:43:14.359Z,9.45
2023-02-05T10:44:14.583Z,9.39
2023-02-05T10:45:18.797Z,9.39
2023-02-05T10:46:16.363Z,9.34
2023-02-05T10:47:16.503Z,9.22
2023-02-05T10:48:17.184Z,8.99
2023-02-05T10:49:18.124Z,9.08
2023-02-05T10:50:19.089Z,8.99
2023-02-05T10:51:20.055Z,8.97
2023-02-05T10:52:20.706Z,8.86
2023-02-05T10:53:20.930Z,8.69
2023-02-05T10:54:21.303Z,8.6
2023-02-05T10:55:21.522Z,8.38
2023-02-05T10:56:22.350Z,8.16
2023-02-05T10:57:23.423Z,8.17
2023-02-05T10:58:23.345Z,7.93
2023-02-05T10:59:23.852Z,7.9
2023-02-05T11:00:23.910Z,7.87
2023-02-05T11:01:24.502Z,7.84
2023-02-05T11:02:25.202Z,7.84
2023-02-05T11:03:25.542Z,7.83
2023-02-05T11:04:25.770Z,7.87
2023-02-05T11:05:26.152Z,7.84
2023-02-05T11:06:27.367Z,7.9
2023-02-05T11:07:27.504Z,7.8
2023-02-05T11:08:28.444Z,7.67
2023-02-05T11:09:29.669Z,7.61
2023-02-05T11:10:30.403Z,7.56
2023-02-05T11:11:30.514Z,7.48
2023-02-05T11:12:31.373Z,7.43
2023-02-05T11:13:31.777Z,7.33
2023-02-05T11:14:32.474Z,7.23
2023-02-05T11:15:32.970Z,7.19
2023-02-05T11:16:33.511Z,7.21
2023-02-05T11:17:34.019Z,7.19
2023-02-05T11:18:34.258Z,7.04
2023-02-05T11:19:35.492Z,7.05
2023-02-05T11:20:36.618Z,7.22
2023-02-05T11:21:36.254Z,7.22
2023-02-05T11:22:36.497Z,7.39
2023-02-05T11:23:37.149Z,7.37
2023-02-05T11:24:38.065Z,7.5
2023-02-05T11:25:38.025Z,7.59
2023-02-05T11:26:38.612Z,7.61
2023-02-05T11:27:39.529Z,7.59
2023-02-05T11:28:40.082Z,7.51
2023-02-05T11:29:40.085Z,7.5
2023-02-05T11:31:10.443Z,7.48
2023-02-05T11:31:42.406Z,7.37
2023-02-05T11:32:43.121Z,7.39
2023-02-05T11:33:43.129Z,7.36
2023-02-05T11:34:44.124Z,7.25
2023-02-05T11:35:45.363Z,7.25
2023-02-05T11:36:46.336Z,7.23
2023-02-05T11:37:46.393Z,7.18
2023-02-05T11:38:47.029Z,7.03
2023-02-05T11:39:47.526Z,7.04
2023-02-05T11:40:48.440Z,7
2023-02-05T11:41:48.760Z,6.9
2023-02-05T11:42:49.000Z,6.83
2023-02-05T11:43:49.908Z,6.68
2023-02-05T11:44:50.603Z,6.7
2023-02-05T11:45:51.541Z,6.7
2023-02-05T11:46:51.970Z,6.65
2023-02-05T11:47:53.108Z,6.62
2023-02-05T11:48:53.060Z,6.44
2023-02-05T11:49:52.995Z,6.47
2023-02-05T11:50:53.997Z,6.43
2023-02-05T11:51:54.905Z,6.46
2023-02-05T11:52:55.861Z,6.47
2023-02-05T11:53:55.772Z,6.49
2023-02-05T11:54:56.261Z,6.44
2023-02-05T11:55:56.475Z,6.39
2023-02-05T11:56:56.116Z,6.36
2023-02-05T11:57:57.159Z,6.38
2023-02-05T11:58:57.374Z,6.29
2023-02-05T11:59:58.320Z,6.28
2023-02-05T12:00:58.276Z,6.19
2023-02-05T12:01:59.596Z,6.32
2023-02-05T12:02:59.738Z,6.26
2023-02-05T12:04:00.103Z,6.35
2023-02-05T12:05:00.608Z,6.32
2023-02-05T12:06:01.149Z,6.26
2023-02-05T12:07:01.565Z,6.16
2023-02-05T12:08:02.297Z,6.22
2023-02-05T12:09:03.043Z,6.2
2023-02-05T12:10:03.532Z,6.19
2023-02-05T12:11:03.726Z,6.22
2023-02-05T12:12:04.941Z,6.2
2023-02-05T12:13:05.865Z,6.2
2023-02-05T12:14:05.787Z,6.15
2023-02-05T12:15:06.986Z,6.22
2023-02-05T12:16:07.614Z,6.19
2023-02-05T12:17:07.962Z,6.22
2023-02-05T12:18:08.773Z,6.17
2023-02-05T12:19:09.024Z,6.22
2023-02-05T12:20:08.939Z,6.19
2023-02-05T12:21:09.627Z,6.22
2023-02-05T12:22:10.543Z,6.15
2023-02-05T12:23:10.469Z,6.19
2023-02-05T12:24:11.678Z,6.19
2023-02-05T12:25:11.865Z,6.22
2023-02-05T12:26:12.059Z,6.19
2023-02-05T12:27:12.700Z,6.16
2023-02-05T12:28:13.974Z,6.17
2023-02-05T12:29:14.006Z,6.19
2023-02-05T12:30:14.744Z,6.25
2023-02-05T12:31:15.474Z,6.19
2023-02-05T12:32:15.220Z,6.2
2023-02-05T12:33:16.203Z,6.19
2023-02-05T12:34:16.901Z,6.19
2023-02-05T12:35:17.117Z,6.13
2023-02-05T12:36:18.350Z,6.13
2023-02-05T12:37:18.267Z,6.1
2023-02-05T12:38:33.054Z,6.09
2023-02-05T12:39:19.754Z,6.12
2023-02-05T12:40:20.981Z,6.09
2023-02-05T12:41:21.197Z,6.09
2023-02-05T12:42:22.420Z,6.16
2023-02-05T12:43:22.920Z,6.2
2023-02-05T12:44:23.882Z,6.2
2023-02-05T12:45:24.922Z,6.25
2023-02-05T12:46:25.603Z,6.17
2023-02-05T12:47:26.520Z,6.22
2023-02-05T12:48:27.559Z,6.13
2023-02-05T12:49:27.561Z,6.17
2023-02-05T12:50:28.200Z,6.13
2023-02-05T12:51:28.746Z,6.06
2023-02-05T12:52:28.978Z,6.01
2023-02-05T12:53:29.175Z,5.98
2023-02-05T12:54:30.094Z,6.1
2023-02-05T12:55:30.595Z,5.99
2023-02-05T12:56:31.276Z,6.09
2023-02-05T12:57:31.785Z,6.05
2023-02-05T12:58:31.672Z,6.09
2023-02-05T12:59:32.607Z,6.05
2023-02-05T13:00:34.411Z,6.13
2023-02-05T13:01:34.319Z,6.09
2023-02-05T13:02:35.234Z,5.99
2023-02-05T13:03:35.962Z,5.99
2023-02-05T13:04:36.690Z,5.99
2023-02-05T13:05:37.066Z,5.88
2023-02-05T13:06:37.659Z,5.9
2023-02-05T13:07:37.860Z,5.83
2023-02-05T13:08:38.891Z,5.76
2023-02-05T13:09:39.389Z,5.77
2023-02-05T13:10:39.293Z,5.73
2023-02-05T13:11:39.632Z,5.65
2023-02-05T13:12:40.745Z,5.67
2023-02-05T13:13:40.943Z,5.61
2023-02-05T13:14:41.428Z,5.59
2023-02-05T13:15:42.348Z,5.52
2023-02-05T13:16:42.374Z,5.46
2023-02-05T13:17:43.035Z,5.38
2023-02-05T13:18:43.515Z,5.37
2023-02-05T13:19:44.039Z,5.36
2023-02-05T13:20:44.242Z,5.33
2023-02-05T13:21:45.213Z,5.36
2023-02-05T13:22:46.124Z,5.31
2023-02-05T13:23:46.763Z,5.31
2023-02-05T13:24:47.673Z,5.23
2023-02-05T13:25:47.958Z,5.33
2023-02-05T13:26:48.155Z,5.28